Imperial Beach, CA

8:41 AM PDT on September 01, 2014 (GMT -0700)
North Island Naval Air Station | Change Station
CLOSE
Current Station
Airport
Location: North Island,
Elevation: 23 ft
Nearby Weather Stations
Active Advisory: Beach Hazard Statement

Elev 23 ft 32.69 °N, 117.21 °W | Updated 49 minutes ago

Overcast
Overcast
69 °F
Feels Like 69 °F
N
9
Wind Variable Wind from SE

Today
High -- | Low -- °F
--% Chance of Precip.
Yesterday
High -- | Low -- °F
Precip. -- in
6:23 AM 7:12 PM
Waxing Crescent, 41% visible
Pressure 29.83 in
Visibility 8.0 miles
Clouds Overcast 1300 ft
Dew Point 63 °F
Humidity 81%
Rainfall 0.00 in
Snow Depth Not available.
UV 0 out of 12
Pollen 8.30 out of 12
Ozone Good
PM2.5 Moderate
Flu Activity Not available.
METAR KNZY 011452Z AUTO 14008KT 8SM OVC013 21/17 A2983 RMK AO2 SLP100 T02060172 53007 $

More Conditions Fewer Conditions

Pressure 29.83 in
Visibility 8.0 miles
Clouds Overcast 1300 ft
Dew Point 63 °F
Humidity 81%
Rainfall 0.00 in
Snow Depth Not available.
UV 0 out of 12
Pollen 8.30 out of 12
Ozone Good
PM2.5 Moderate
Flu Activity Not available.
METAR KNZY 011452Z AUTO 14008KT 8SM OVC013 21/17 A2983 RMK AO2 SLP100 T02060172 53007 $

More Conditions Fewer Conditions

10-Day Weather Forecast

Almanac

Astronomy

Sep. 01, 2014 Rise Set
Actual Time 6:23 AM PDT 7:12 PM PDT
Civil Twilight 5:58 AM PDT 7:37 PM PDT
Nautical Twilight 5:28 AM PDT 8:07 PM PDT
Astronomical Twilight 4:58 AM PDT 8:37 PM PDT
Moon 12:51 PM PDT 11:40 PM PDT
Length of Visible Light 13h 39m
Length of Day
12h 49m
Tomorrow will be 1m 56s shorter.
Waxing Crescent, 41% of the Moon is Illuminated
Today
Waxing Crescent
Sep 2
First Quarter
Sep 8
Full
Sep 15
Last Quarter
Sep 24
New

Today's Extremes

State Highs State Lows

Community

WunderPhotos

Upload Photos

1,749,276 photos uploaded!

Nearby

Air Quality

  Air Quality AQ Index Pollutant
Yesterday Moderate
PM2.5
Yesterday Good
OZONE
Current Moderate
PM2.5
Current Good
OZONE
Monday Good
PM2.5
Monday Good
OZONE

Snow Depth

Station Depth Elevation
Leavitt Lake 1 in 9400 ft
Leavitt Meadows 1 in 7200 ft
Sonora Pass 0 in 8800 ft
Summit Meadow 1 in 9122 ft
Monitor Pass 0 in 8350 ft

Earthquake Activity

City Distance Mag. Time & Date
Malibu, California 139 miles 2.5 8:11 AM PDT
2014-08-30
Minimum magnitude displayed is 2.5.

Coastal Water Temperatures

Place Temperature
La Jolla, CA 66.0 °F
San Diego, CA 73.9 °F

Nearby Weather Stations